sensor_id;sensor_type;location;lat;lon;timestamp;pressure;altitude;pressure_sealevel;temperature;humidity
76074;BME280;64776;42.636;24.358;2023-01-04T00:02:49;90965.44;;;-0.27;82.02
76074;BME280;64776;42.636;24.358;2023-01-04T00:05:50;90962.88;;;-0.34;82.32
76074;BME280;64776;42.636;24.358;2023-01-04T00:08:50;90955.78;;;-0.33;82.66
76074;BME280;64776;42.636;24.358;2023-01-04T00:11:51;90967.72;;;-0.29;82.66
76074;BME280;64776;42.636;24.358;2023-01-04T00:14:52;90957.22;;;-0.25;82.83
76074;BME280;64776;42.636;24.358;2023-01-04T00:17:54;90948.25;;;-0.28;82.21
76074;BME280;64776;42.636;24.358;2023-01-04T00:20:55;90944.88;;;-0.28;82.42
76074;BME280;64776;42.636;24.358;2023-01-04T00:23:58;90951.25;;;-0.29;81.99
76074;BME280;64776;42.636;24.358;2023-01-04T00:26:59;90941.94;;;-0.37;81.76
76074;BME280;64776;42.636;24.358;2023-01-04T00:30:00;90944.56;;;-0.37;82.29
76074;BME280;64776;42.636;24.358;2023-01-04T00:33:02;90941.22;;;-0.41;81.26
76074;BME280;64776;42.636;24.358;2023-01-04T00:36:04;90949.91;;;-0.55;82.08
76074;BME280;64776;42.636;24.358;2023-01-04T00:39:05;90951.38;;;-0.50;82.34
76074;BME280;64776;42.636;24.358;2023-01-04T00:42:06;90948.38;;;-0.52;82.13
76074;BME280;64776;42.636;24.358;2023-01-04T00:45:08;90946.88;;;-0.50;81.94
76074;BME280;64776;42.636;24.358;2023-01-04T00:48:10;90951.34;;;-0.47;81.97
76074;BME280;64776;42.636;24.358;2023-01-04T00:51:11;90950.69;;;-0.58;82.30
76074;BME280;64776;42.636;24.358;2023-01-04T00:54:12;90957.75;;;-0.55;82.93
76074;BME280;64776;42.636;24.358;2023-01-04T00:57:13;90957.38;;;-0.50;82.57
76074;BME280;64776;42.636;24.358;2023-01-04T01:00:14;90961.88;;;-0.54;82.67
76074;BME280;64776;42.636;24.358;2023-01-04T01:03:17;90957.38;;;-0.53;82.30
76074;BME280;64776;42.636;24.358;2023-01-04T01:06:17;90958.94;;;-0.63;82.66
76074;BME280;64776;42.636;24.358;2023-01-04T01:09:19;90956.66;;;-0.61;83.72
76074;BME280;64776;42.636;24.358;2023-01-04T01:12:19;90953.19;;;-0.40;83.49
76074;BME280;64776;42.636;24.358;2023-01-04T01:15:20;90947.56;;;-0.39;83.25
76074;BME280;64776;42.636;24.358;2023-01-04T01:18:22;90952.50;;;-0.48;82.11
76074;BME280;64776;42.636;24.358;2023-01-04T01:21:25;90959.63;;;-0.52;81.77
76074;BME280;64776;42.636;24.358;2023-01-04T01:24:26;90961.16;;;-0.58;81.99
76074;BME280;64776;42.636;24.358;2023-01-04T01:27:27;90949.94;;;-0.62;81.95
76074;BME280;64776;42.636;24.358;2023-01-04T01:30:28;90938.00;;;-0.66;82.72
76074;BME280;64776;42.636;24.358;2023-01-04T01:33:30;90945.47;;;-0.65;82.30
76074;BME280;64776;42.636;24.358;2023-01-04T01:36:31;90944.34;;;-0.64;82.04
76074;BME280;64776;42.636;24.358;2023-01-04T01:39:31;90931.28;;;-0.78;82.57
76074;BME280;64776;42.636;24.358;2023-01-04T01:42:32;90937.22;;;-0.63;82.70
76074;BME280;64776;42.636;24.358;2023-01-04T01:45:33;90940.22;;;-0.65;82.22
76074;BME280;64776;42.636;24.358;2023-01-04T01:48:36;90938.44;;;-0.86;83.71
76074;BME280;64776;42.636;24.358;2023-01-04T01:51:39;90937.31;;;-0.81;85.48
76074;BME280;64776;42.636;24.358;2023-01-04T01:54:43;90930.81;;;-0.59;87.55
76074;BME280;64776;42.636;24.358;2023-01-04T01:57:46;90933.47;;;-0.66;87.83
76074;BME280;64776;42.636;24.358;2023-01-04T02:00:49;90931.16;;;-0.50;90.11
76074;BME280;64776;42.636;24.358;2023-01-04T02:03:51;90928.13;;;-0.41;91.56
76074;BME280;64776;42.636;24.358;2023-01-04T02:06:54;90926.50;;;-0.28;91.51
76074;BME280;64776;42.636;24.358;2023-01-04T02:09:57;90932.03;;;-0.16;91.90
76074;BME280;64776;42.636;24.358;2023-01-04T02:13:01;90932.28;;;0.00;91.99
76074;BME280;64776;42.636;24.358;2023-01-04T02:16:10;90926.16;;;0.18;91.33
76074;BME280;64776;42.636;24.358;2023-01-04T02:27:10;90925.97;;;0.39;93.06
76074;BME280;64776;42.636;24.358;2023-01-04T02:33:56;90923.03;;;0.70;93.14
76074;BME280;64776;42.636;24.358;2023-01-04T02:37:02;90922.56;;;0.79;93.21
76074;BME280;64776;42.636;24.358;2023-01-04T02:40:11;90915.63;;;0.96;93.08
76074;BME280;64776;42.636;24.358;2023-01-04T02:43:19;90922.09;;;1.21;93.40
76074;BME280;64776;42.636;24.358;2023-01-04T02:46:26;90922.41;;;1.53;93.33
76074;BME280;64776;42.636;24.358;2023-01-04T02:49:30;90923.72;;;1.69;93.63
76074;BME280;64776;42.636;24.358;2023-01-04T02:52:31;90915.72;;;1.76;93.41
76074;BME280;64776;42.636;24.358;2023-01-04T02:55:41;90913.78;;;1.80;93.54
76074;BME280;64776;42.636;24.358;2023-01-04T02:58:59;90906.28;;;1.78;93.75
76074;BME280;64776;42.636;24.358;2023-01-04T03:02:14;90906.63;;;1.80;93.92
76074;BME280;64776;42.636;24.358;2023-01-04T03:05:25;90908.16;;;1.78;93.11
76074;BME280;64776;42.636;24.358;2023-01-04T03:08:32;90909.56;;;1.59;91.44
76074;BME280;64776;42.636;24.358;2023-01-04T03:11:50;90908.94;;;1.51;93.09
76074;BME280;64776;42.636;24.358;2023-01-04T03:14:56;90908.97;;;1.75;92.32
76074;BME280;64776;42.636;24.358;2023-01-04T03:18:01;90905.53;;;1.78;90.76
76074;BME280;64776;42.636;24.358;2023-01-04T03:21:09;90902.00;;;1.64;88.94
76074;BME280;64776;42.636;24.358;2023-01-04T03:24:11;90906.50;;;1.37;86.41
76074;BME280;64776;42.636;24.358;2023-01-04T03:27:13;90919.88;;;1.16;85.83
76074;BME280;64776;42.636;24.358;2023-01-04T03:30:17;90920.28;;;0.81;85.35
76074;BME280;64776;42.636;24.358;2023-01-04T03:33:20;90919.47;;;0.88;86.30
76074;BME280;64776;42.636;24.358;2023-01-04T03:36:45;90923.22;;;0.90;86.29
76074;BME280;64776;42.636;24.358;2023-01-04T03:40:02;90914.63;;;0.86;85.99
76074;BME280;64776;42.636;24.358;2023-01-04T03:43:12;90918.81;;;0.80;86.29
76074;BME280;64776;42.636;24.358;2023-01-04T03:46:20;90923.25;;;0.87;85.94
76074;BME280;64776;42.636;24.358;2023-01-04T03:49:30;90918.72;;;0.87;85.36
76074;BME280;64776;42.636;24.358;2023-01-04T03:52:35;90928.25;;;0.74;85.55
76074;BME280;64776;42.636;24.358;2023-01-04T03:55:39;90926.41;;;0.71;84.60
76074;BME280;64776;42.636;24.358;2023-01-04T03:58:41;90911.41;;;0.71;87.89
76074;BME280;64776;42.636;24.358;2023-01-04T04:01:43;90914.28;;;0.80;90.50
76074;BME280;64776;42.636;24.358;2023-01-04T04:04:44;90921.63;;;0.96;89.97
76074;BME280;64776;42.636;24.358;2023-01-04T04:07:47;90925.91;;;0.83;87.18
76074;BME280;64776;42.636;24.358;2023-01-04T04:10:48;90929.31;;;0.80;86.07
76074;BME280;64776;42.636;24.358;2023-01-04T04:13:49;90933.94;;;0.69;84.94
76074;BME280;64776;42.636;24.358;2023-01-04T04:16:50;90932.56;;;0.57;85.54
76074;BME280;64776;42.636;24.358;2023-01-04T04:19:51;90939.97;;;0.66;85.58
76074;BME280;64776;42.636;24.358;2023-01-04T04:22:53;90933.22;;;0.65;86.31
76074;BME280;64776;42.636;24.358;2023-01-04T04:25:54;90932.06;;;0.69;87.04
76074;BME280;64776;42.636;24.358;2023-01-04T04:28:55;90937.63;;;0.75;87.68
76074;BME280;64776;42.636;24.358;2023-01-04T04:31:55;90931.09;;;0.90;87.59
76074;BME280;64776;42.636;24.358;2023-01-04T04:34:56;90945.38;;;0.86;86.58
76074;BME280;64776;42.636;24.358;2023-01-04T04:37:59;90941.63;;;0.87;86.39
76074;BME280;64776;42.636;24.358;2023-01-04T04:41:05;90943.22;;;0.77;85.86
76074;BME280;64776;42.636;24.358;2023-01-04T04:44:07;90951.81;;;0.81;86.01
76074;BME280;64776;42.636;24.358;2023-01-04T04:47:08;90950.53;;;0.96;85.46
76074;BME280;64776;42.636;24.358;2023-01-04T04:50:08;90954.72;;;0.90;85.81
76074;BME280;64776;42.636;24.358;2023-01-04T04:53:10;90951.47;;;0.79;85.93
76074;BME280;64776;42.636;24.358;2023-01-04T04:56:11;90954.03;;;0.82;85.31
76074;BME280;64776;42.636;24.358;2023-01-04T04:59:12;90945.09;;;0.80;84.90
76074;BME280;64776;42.636;24.358;2023-01-04T05:02:13;90951.16;;;0.73;84.69
76074;BME280;64776;42.636;24.358;2023-01-04T05:05:14;90948.66;;;0.59;85.06
76074;BME280;64776;42.636;24.358;2023-01-04T05:08:16;90955.28;;;0.71;85.76
76074;BME280;64776;42.636;24.358;2023-01-04T05:11:17;90961.19;;;0.82;85.50
76074;BME280;64776;42.636;24.358;2023-01-04T05:14:17;90954.03;;;0.86;85.35
76074;BME280;64776;42.636;24.358;2023-01-04T05:17:18;90956.56;;;0.93;84.98
76074;BME280;64776;42.636;24.358;2023-01-04T05:20:19;90957.63;;;0.99;85.11
76074;BME280;64776;42.636;24.358;2023-01-04T05:23:22;90965.50;;;0.99;84.69
76074;BME280;64776;42.636;24.358;2023-01-04T05:26:22;90965.09;;;1.04;85.02
76074;BME280;64776;42.636;24.358;2023-01-04T05:29:23;90971.09;;;1.01;84.60
76074;BME280;64776;42.636;24.358;2023-01-04T05:32:24;90972.50;;;1.13;83.64
76074;BME280;64776;42.636;24.358;2023-01-04T05:35:25;90980.03;;;1.11;83.76
76074;BME280;64776;42.636;24.358;2023-01-04T05:38:27;90972.31;;;0.97;84.10
76074;BME280;64776;42.636;24.358;2023-01-04T05:41:28;90975.28;;;0.99;83.78
76074;BME280;64776;42.636;24.358;2023-01-04T05:44:29;90985.81;;;0.95;84.26
76074;BME280;64776;42.636;24.358;2023-01-04T05:47:30;90987.31;;;0.96;84.73
76074;BME280;64776;42.636;24.358;2023-01-04T05:50:31;90992.97;;;0.95;84.62
76074;BME280;64776;42.636;24.358;2023-01-04T05:53:33;90999.66;;;0.99;84.46
76074;BME280;64776;42.636;24.358;2023-01-04T05:56:34;90993.69;;;0.99;84.59
76074;BME280;64776;42.636;24.358;2023-01-04T05:59:35;91004.13;;;1.02;84.61
76074;BME280;64776;42.636;24.358;2023-01-04T06:02:36;91001.50;;;1.02;85.32
76074;BME280;64776;42.636;24.358;2023-01-04T06:05:37;90999.53;;;1.13;84.42
76074;BME280;64776;42.636;24.358;2023-01-04T06:08:39;91005.84;;;1.19;84.64
76074;BME280;64776;42.636;24.358;2023-01-04T06:11:40;91007.66;;;1.22;84.64
76074;BME280;64776;42.636;24.358;2023-01-04T06:14:41;90996.38;;;1.25;84.67
76074;BME280;64776;42.636;24.358;2023-01-04T06:17:42;90993.41;;;1.23;84.69
76074;BME280;64776;42.636;24.358;2023-01-04T06:20:42;90988.91;;;1.20;85.15
76074;BME280;64776;42.636;24.358;2023-01-04T06:23:45;90992.69;;;1.19;85.42
76074;BME280;64776;42.636;24.358;2023-01-04T06:26:45;90994.13;;;1.24;85.44
76074;BME280;64776;42.636;24.358;2023-01-04T06:29:46;91008.75;;;0.91;86.29
76074;BME280;64776;42.636;24.358;2023-01-04T06:32:47;90998.88;;;1.02;86.74
76074;BME280;64776;42.636;24.358;2023-01-04T06:35:53;91007.38;;;1.17;86.20
76074;BME280;64776;42.636;24.358;2023-01-04T06:38:57;91017.72;;;1.31;86.28
76074;BME280;64776;42.636;24.358;2023-01-04T06:41:58;91022.94;;;1.34;85.92
76074;BME280;64776;42.636;24.358;2023-01-04T06:44:58;91013.41;;;1.47;86.14
76074;BME280;64776;42.636;24.358;2023-01-04T06:47:59;91022.34;;;1.53;85.90
76074;BME280;64776;42.636;24.358;2023-01-04T06:51:00;91020.00;;;1.62;85.57
76074;BME280;64776;42.636;24.358;2023-01-04T06:54:02;91014.19;;;1.75;85.36
76074;BME280;64776;42.636;24.358;2023-01-04T06:57:03;91018.31;;;1.76;85.30
76074;BME280;64776;42.636;24.358;2023-01-04T07:00:06;91019.69;;;1.84;85.17
76074;BME280;64776;42.636;24.358;2023-01-04T07:03:07;91007.59;;;1.90;85.40
76074;BME280;64776;42.636;24.358;2023-01-04T07:06:07;91012.50;;;1.88;85.15
76074;BME280;64776;42.636;24.358;2023-01-04T07:09:10;91014.91;;;1.79;85.86
76074;BME280;64776;42.636;24.358;2023-01-04T07:12:10;91018.84;;;1.94;87.44
76074;BME280;64776;42.636;24.358;2023-01-04T07:15:11;91022.22;;;2.21;88.10
76074;BME280;64776;42.636;24.358;2023-01-04T07:18:12;91023.38;;;2.20;88.98
76074;BME280;64776;42.636;24.358;2023-01-04T07:21:13;91026.91;;;2.33;89.93
76074;BME280;64776;42.636;24.358;2023-01-04T07:24:15;91034.72;;;2.40;89.33
76074;BME280;64776;42.636;24.358;2023-01-04T07:27:16;91037.59;;;2.49;88.52
76074;BME280;64776;42.636;24.358;2023-01-04T07:30:17;91029.53;;;2.36;88.81
76074;BME280;64776;42.636;24.358;2023-01-04T07:33:18;91029.00;;;2.68;88.58
76074;BME280;64776;42.636;24.358;2023-01-04T07:36:18;91027.66;;;2.83;88.86
76074;BME280;64776;42.636;24.358;2023-01-04T07:39:21;91026.09;;;2.86;89.80
76074;BME280;64776;42.636;24.358;2023-01-04T07:42:22;91031.88;;;3.00;89.08
76074;BME280;64776;42.636;24.358;2023-01-04T07:45:23;91029.13;;;3.07;90.26
76074;BME280;64776;42.636;24.358;2023-01-04T07:48:23;91041.53;;;3.30;90.30
76074;BME280;64776;42.636;24.358;2023-01-04T07:51:24;91040.47;;;3.47;89.90
76074;BME280;64776;42.636;24.358;2023-01-04T07:54:26;91037.38;;;3.52;90.23
76074;BME280;64776;42.636;24.358;2023-01-04T07:57:27;91044.72;;;3.61;90.79
76074;BME280;64776;42.636;24.358;2023-01-04T08:00:28;91039.19;;;3.75;90.25
76074;BME280;64776;42.636;24.358;2023-01-04T08:03:29;91038.38;;;3.78;89.29
76074;BME280;64776;42.636;24.358;2023-01-04T08:06:29;91036.59;;;3.91;89.92
76074;BME280;64776;42.636;24.358;2023-01-04T08:09:31;91050.81;;;3.97;89.42
76074;BME280;64776;42.636;24.358;2023-01-04T08:12:32;91051.41;;;4.04;90.17
76074;BME280;64776;42.636;24.358;2023-01-04T08:15:33;91047.41;;;4.16;89.17
76074;BME280;64776;42.636;24.358;2023-01-04T08:18:34;91052.03;;;4.12;89.22
76074;BME280;64776;42.636;24.358;2023-01-04T08:21:35;91044.31;;;4.37;88.96
76074;BME280;64776;42.636;24.358;2023-01-04T08:24:37;91035.44;;;4.63;88.26
76074;BME280;64776;42.636;24.358;2023-01-04T08:27:38;91039.41;;;4.71;88.45
76074;BME280;64776;42.636;24.358;2023-01-04T08:30:39;91048.00;;;4.75;87.46
76074;BME280;64776;42.636;24.358;2023-01-04T08:33:40;91051.28;;;4.79;87.40
76074;BME280;64776;42.636;24.358;2023-01-04T08:36:45;91049.38;;;4.64;87.44
76074;BME280;64776;42.636;24.358;2023-01-04T08:39:48;91043.59;;;4.85;87.33
76074;BME280;64776;42.636;24.358;2023-01-04T08:42:48;91045.34;;;4.75;87.51
76074;BME280;64776;42.636;24.358;2023-01-04T08:45:49;91043.84;;;4.90;86.28
76074;BME280;64776;42.636;24.358;2023-01-04T08:48:50;91055.09;;;5.11;86.04
76074;BME280;64776;42.636;24.358;2023-01-04T08:51:51;91048.56;;;4.99;86.14
76074;BME280;64776;42.636;24.358;2023-01-04T08:54:53;91043.19;;;5.03;86.31
76074;BME280;64776;42.636;24.358;2023-01-04T08:57:54;91043.19;;;5.03;85.86
76074;BME280;64776;42.636;24.358;2023-01-04T09:00:58;91042.25;;;5.09;85.97
76074;BME280;64776;42.636;24.358;2023-01-04T09:04:00;91038.97;;;5.05;85.53
76074;BME280;64776;42.636;24.358;2023-01-04T09:07:01;91036.25;;;5.09;85.01
76074;BME280;64776;42.636;24.358;2023-01-04T09:10:03;91035.97;;;5.03;85.86
76074;BME280;64776;42.636;24.358;2023-01-04T09:13:04;91028.31;;;5.09;86.31
76074;BME280;64776;42.636;24.358;2023-01-04T09:16:07;91030.31;;;5.05;85.90
76074;BME280;64776;42.636;24.358;2023-01-04T09:19:08;91022.19;;;5.12;86.24
76074;BME280;64776;42.636;24.358;2023-01-04T09:22:09;91014.31;;;5.24;86.15
76074;BME280;64776;42.636;24.358;2023-01-04T09:25:11;91018.63;;;5.47;85.28
76074;BME280;64776;42.636;24.358;2023-01-04T09:28:12;91011.50;;;5.60;84.26
76074;BME280;64776;42.636;24.358;2023-01-04T09:31:14;91004.91;;;5.52;84.64
76074;BME280;64776;42.636;24.358;2023-01-04T09:34:15;91010.31;;;5.32;84.85
76074;BME280;64776;42.636;24.358;2023-01-04T09:37:16;91007.06;;;5.41;84.76
76074;BME280;64776;42.636;24.358;2023-01-04T09:40:24;90997.66;;;5.40;84.84
76074;BME280;64776;42.636;24.358;2023-01-04T09:43:28;90984.63;;;5.74;83.60
76074;BME280;64776;42.636;24.358;2023-01-04T09:46:38;90990.72;;;6.00;83.20
76074;BME280;64776;42.636;24.358;2023-01-04T09:49:44;90987.97;;;5.91;82.63
76074;BME280;64776;42.636;24.358;2023-01-04T09:52:55;90998.94;;;5.76;83.23
76074;BME280;64776;42.636;24.358;2023-01-04T09:56:07;90993.72;;;5.73;83.83
76074;BME280;64776;42.636;24.358;2023-01-04T09:59:14;90995.31;;;5.70;83.12
76074;BME280;64776;42.636;24.358;2023-01-04T10:02:21;90993.66;;;5.76;83.49
76074;BME280;64776;42.636;24.358;2023-01-04T10:05:26;90991.41;;;5.75;82.96
76074;BME280;64776;42.636;24.358;2023-01-04T10:08:28;90986.22;;;5.71;83.48
76074;BME280;64776;42.636;24.358;2023-01-04T10:11:38;90987.28;;;5.74;83.44
76074;BME280;64776;42.636;24.358;2023-01-04T10:14:53;90984.38;;;5.97;82.39
76074;BME280;64776;42.636;24.358;2023-01-04T10:18:05;90975.41;;;6.07;81.54
76074;BME280;64776;42.636;24.358;2023-01-04T10:21:19;90970.50;;;6.18;81.86
76074;BME280;64776;42.636;24.358;2023-01-04T10:24:32;90967.34;;;6.23;80.93
76074;BME280;64776;42.636;24.358;2023-01-04T10:27:46;90970.75;;;6.24;80.78
76074;BME280;64776;42.636;24.358;2023-01-04T10:30:53;90972.97;;;6.50;80.55
76074;BME280;64776;42.636;24.358;2023-01-04T10:34:05;90973.16;;;6.31;80.41
76074;BME280;64776;42.636;24.358;2023-01-04T10:37:12;90976.00;;;5.99;81.22
76074;BME280;64776;42.636;24.358;2023-01-04T10:40:16;90970.94;;;6.04;80.82
76074;BME280;64776;42.636;24.358;2023-01-04T10:43:26;90971.13;;;5.85;81.67
76074;BME280;64776;42.636;24.358;2023-01-04T10:46:38;90980.47;;;6.02;81.21
76074;BME280;64776;42.636;24.358;2023-01-04T10:49:45;90968.38;;;6.01;81.58
76074;BME280;64776;42.636;24.358;2023-01-04T10:52:50;90971.88;;;5.85;81.35
76074;BME280;64776;42.636;24.358;2023-01-04T10:55:52;90960.78;;;6.15;80.54
76074;BME280;64776;42.636;24.358;2023-01-04T10:59:00;90962.47;;;6.22;80.25
76074;BME280;64776;42.636;24.358;2023-01-04T11:02:08;90971.38;;;6.40;80.40
76074;BME280;64776;42.636;24.358;2023-01-04T11:05:18;90969.38;;;6.44;80.62
76074;BME280;64776;42.636;24.358;2023-01-04T11:08:23;90968.31;;;6.42;80.53
76074;BME280;64776;42.636;24.358;2023-01-04T11:11:33;90959.91;;;6.43;80.01
76074;BME280;64776;42.636;24.358;2023-01-04T11:14:37;90964.91;;;6.41;80.17
76074;BME280;64776;42.636;24.358;2023-01-04T11:17:38;90962.25;;;6.41;80.10
76074;BME280;64776;42.636;24.358;2023-01-04T11:20:40;90963.28;;;6.82;79.82
76074;BME280;64776;42.636;24.358;2023-01-04T11:23:41;90956.50;;;7.15;78.06
76074;BME280;64776;42.636;24.358;2023-01-04T11:26:43;90965.09;;;7.19;78.24
76074;BME280;64776;42.636;24.358;2023-01-04T11:29:53;90960.63;;;7.16;77.26
76074;BME280;64776;42.636;24.358;2023-01-04T11:33:00;90966.03;;;6.78;77.64
76074;BME280;64776;42.636;24.358;2023-01-04T11:36:02;90970.31;;;6.63;78.96
76074;BME280;64776;42.636;24.358;2023-01-04T11:39:05;90965.69;;;6.89;78.83
76074;BME280;64776;42.636;24.358;2023-01-04T11:42:18;90968.59;;;6.82;78.39
76074;BME280;64776;42.636;24.358;2023-01-04T11:45:24;90960.97;;;6.58;79.60
76074;BME280;64776;42.636;24.358;2023-01-04T11:48:32;90953.66;;;6.97;78.82
76074;BME280;64776;42.636;24.358;2023-01-04T11:51:35;90948.16;;;7.04;77.91
76074;BME280;64776;42.636;24.358;2023-01-04T11:54:36;90952.91;;;7.09;77.80
76074;BME280;64776;42.636;24.358;2023-01-04T11:57:37;90937.97;;;7.58;76.02
76074;BME280;64776;42.636;24.358;2023-01-04T12:00:49;90944.88;;;7.56;76.34
76074;BME280;64776;42.636;24.358;2023-01-04T12:03:50;90944.97;;;7.74;75.42
76074;BME280;64776;42.636;24.358;2023-01-04T12:06:54;90936.94;;;7.65;76.19
76074;BME280;64776;42.636;24.358;2023-01-04T12:09:55;90938.69;;;7.59;76.32
76074;BME280;64776;42.636;24.358;2023-01-04T12:12:59;90940.72;;;7.33;75.64
76074;BME280;64776;42.636;24.358;2023-01-04T12:16:07;90928.19;;;7.33;76.49
76074;BME280;64776;42.636;24.358;2023-01-04T12:19:13;90946.50;;;7.19;76.50
76074;BME280;64776;42.636;24.358;2023-01-04T12:22:20;90934.19;;;7.47;76.86
76074;BME280;64776;42.636;24.358;2023-01-04T12:25:31;90940.91;;;7.60;75.56
76074;BME280;64776;42.636;24.358;2023-01-04T12:28:36;90939.44;;;7.81;75.04
76074;BME280;64776;42.636;24.358;2023-01-04T12:31:39;90933.97;;;7.84;74.25
76074;BME280;64776;42.636;24.358;2023-01-04T12:34:41;90925.03;;;8.00;74.13
76074;BME280;64776;42.636;24.358;2023-01-04T12:37:44;90925.53;;;8.07;73.02
76074;BME280;64776;42.636;24.358;2023-01-04T12:40:52;90929.72;;;8.17;72.75
76074;BME280;64776;42.636;24.358;2023-01-04T12:43:53;90929.31;;;8.59;71.66
76074;BME280;64776;42.636;24.358;2023-01-04T12:46:56;90925.13;;;8.49;71.87
76074;BME280;64776;42.636;24.358;2023-01-04T12:50:00;90922.34;;;8.52;71.55
76074;BME280;64776;42.636;24.358;2023-01-04T12:53:02;90924.88;;;8.74;71.10
76074;BME280;64776;42.636;24.358;2023-01-04T12:56:03;90931.47;;;9.09;69.77
76074;BME280;64776;42.636;24.358;2023-01-04T12:59:10;90932.50;;;9.21;69.52
76074;BME280;64776;42.636;24.358;2023-01-04T13:02:18;90925.97;;;8.37;71.05
76074;BME280;64776;42.636;24.358;2023-01-04T13:05:32;90924.44;;;7.96;71.82
76074;BME280;64776;42.636;24.358;2023-01-04T13:08:39;90930.50;;;7.96;73.17
76074;BME280;64776;42.636;24.358;2023-01-04T13:11:53;90926.44;;;7.83;73.51
76074;BME280;64776;42.636;24.358;2023-01-04T13:15:03;90924.09;;;7.85;73.68
76074;BME280;64776;42.636;24.358;2023-01-04T13:18:20;90925.63;;;7.73;73.47
76074;BME280;64776;42.636;24.358;2023-01-04T13:21:27;90926.53;;;7.70;73.38
76074;BME280;64776;42.636;24.358;2023-01-04T13:24:30;90914.25;;;7.94;73.11
76074;BME280;64776;42.636;24.358;2023-01-04T13:27:32;90916.22;;;8.34;71.99
76074;BME280;64776;42.636;24.358;2023-01-04T13:30:34;90908.81;;;8.29;72.11
76074;BME280;64776;42.636;24.358;2023-01-04T13:33:37;90908.13;;;8.46;72.08
76074;BME280;64776;42.636;24.358;2023-01-04T13:36:38;90911.41;;;8.50;70.33
76074;BME280;64776;42.636;24.358;2023-01-04T13:39:40;90912.75;;;8.64;70.57
76074;BME280;64776;42.636;24.358;2023-01-04T13:42:44;90909.16;;;8.40;71.73
76074;BME280;64776;42.636;24.358;2023-01-04T13:45:58;90917.13;;;8.40;70.86
76074;BME280;64776;42.636;24.358;2023-01-04T13:49:02;90916.41;;;8.48;70.97
76074;BME280;64776;42.636;24.358;2023-01-04T13:52:21;90922.47;;;8.49;71.39
76074;BME280;64776;42.636;24.358;2023-01-04T13:55:24;90942.03;;;8.02;72.02
76074;BME280;64776;42.636;24.358;2023-01-04T13:58:27;90938.50;;;7.75;72.81
76074;BME280;64776;42.636;24.358;2023-01-04T14:01:30;90936.69;;;7.50;74.43
76074;BME280;64776;42.636;24.358;2023-01-04T14:04:33;90945.09;;;6.93;76.60
76074;BME280;64776;42.636;24.358;2023-01-04T14:07:34;90953.28;;;6.86;77.29
76074;BME280;64776;42.636;24.358;2023-01-04T14:10:35;90943.69;;;7.01;76.95
76074;BME280;64776;42.636;24.358;2023-01-04T14:13:37;90944.09;;;6.78;77.80
76074;BME280;64776;42.636;24.358;2023-01-04T14:16:37;90949.06;;;6.76;78.08
76074;BME280;64776;42.636;24.358;2023-01-04T14:19:46;90961.59;;;6.63;78.45
76074;BME280;64776;42.636;24.358;2023-01-04T14:22:52;90957.81;;;6.38;79.48
76074;BME280;64776;42.636;24.358;2023-01-04T14:25:53;90953.56;;;6.28;80.21
76074;BME280;64776;42.636;24.358;2023-01-04T14:28:54;90961.22;;;6.26;80.15
76074;BME280;64776;42.636;24.358;2023-01-04T14:31:55;90962.34;;;6.00;80.65
76074;BME280;64776;42.636;24.358;2023-01-04T14:35:04;90960.34;;;6.04;80.72
76074;BME280;64776;42.636;24.358;2023-01-04T14:38:10;90959.38;;;6.11;80.89
76074;BME280;64776;42.636;24.358;2023-01-04T14:41:18;90961.53;;;6.28;80.32
76074;BME280;64776;42.636;24.358;2023-01-04T14:44:20;90957.19;;;6.34;79.87
76074;BME280;64776;42.636;24.358;2023-01-04T14:47:21;90962.25;;;6.29;79.76
76074;BME280;64776;42.636;24.358;2023-01-04T14:50:24;90961.63;;;6.37;79.58
76074;BME280;64776;42.636;24.358;2023-01-04T14:53:25;90955.69;;;6.33;78.94
76074;BME280;64776;42.636;24.358;2023-01-04T14:56:25;90954.53;;;6.34;79.37
76074;BME280;64776;42.636;24.358;2023-01-04T14:59:26;90962.78;;;5.99;80.76
76074;BME280;64776;42.636;24.358;2023-01-04T15:02:27;90958.41;;;5.92;81.56
76074;BME280;64776;42.636;24.358;2023-01-04T15:05:30;90958.63;;;5.85;81.04
76074;BME280;64776;42.636;24.358;2023-01-04T15:08:31;90951.34;;;5.89;81.62
76074;BME280;64776;42.636;24.358;2023-01-04T15:11:32;90964.72;;;5.82;81.26
76074;BME280;64776;42.636;24.358;2023-01-04T15:14:33;90967.47;;;5.66;82.18
76074;BME280;64776;42.636;24.358;2023-01-04T15:17:34;90969.38;;;5.78;81.81
76074;BME280;64776;42.636;24.358;2023-01-04T15:20:37;90977.44;;;5.74;81.52
76074;BME280;64776;42.636;24.358;2023-01-04T15:23:39;90983.13;;;5.73;82.07
76074;BME280;64776;42.636;24.358;2023-01-04T15:26:39;90980.69;;;5.66;82.51
76074;BME280;64776;42.636;24.358;2023-01-04T15:29:40;90981.84;;;5.65;82.72
76074;BME280;64776;42.636;24.358;2023-01-04T15:32:41;90988.75;;;5.62;82.61
76074;BME280;64776;42.636;24.358;2023-01-04T15:35:43;90984.16;;;5.63;82.70
76074;BME280;64776;42.636;24.358;2023-01-04T15:38:44;90984.63;;;5.74;82.20
76074;BME280;64776;42.636;24.358;2023-01-04T15:41:45;90989.06;;;5.77;82.33
76074;BME280;64776;42.636;24.358;2023-01-04T15:44:46;90987.25;;;5.61;82.51
76074;BME280;64776;42.636;24.358;2023-01-04T15:47:47;90987.78;;;5.69;82.07
76074;BME280;64776;42.636;24.358;2023-01-04T15:50:49;90994.47;;;5.73;81.85
76074;BME280;64776;42.636;24.358;2023-01-04T15:53:51;91000.25;;;5.85;81.56
76074;BME280;64776;42.636;24.358;2023-01-04T15:56:52;91001.53;;;5.93;81.38
76074;BME280;64776;42.636;24.358;2023-01-04T15:59:53;91002.28;;;5.93;81.20
76074;BME280;64776;42.636;24.358;2023-01-04T16:02:54;91005.78;;;5.90;81.35
76074;BME280;64776;42.636;24.358;2023-01-04T16:05:56;90996.25;;;5.93;81.47
76074;BME280;64776;42.636;24.358;2023-01-04T16:08:56;90996.34;;;5.89;81.42
76074;BME280;64776;42.636;24.358;2023-01-04T16:11:57;90999.00;;;5.73;82.33
76074;BME280;64776;42.636;24.358;2023-01-04T16:14:58;90994.97;;;5.85;81.65
76074;BME280;64776;42.636;24.358;2023-01-04T16:17:59;90990.81;;;5.84;80.92
76074;BME280;64776;42.636;24.358;2023-01-04T16:21:04;90985.91;;;5.82;80.94
76074;BME280;64776;42.636;24.358;2023-01-04T16:24:07;90990.56;;;5.78;80.90